Flight Track Log - Related Links

Times and Time Zones

All times are in EDT time to prevent confusion due to time zone crossing. See the ASQ5740 flight status page for this flight to view local times or setup timezone preferences in your user account.

Time Position Orientation Groundspeed Altitude Reporting Facility
EDT Latitude Longitude Course Direction KTS MPH feet Rate Location/Type
Tue 02:53:34 PM 32.8528 -80.0489 13° North 165 190 1,400  Level Jacksonville Center
Tue 02:54:34 PM 32.8742 -79.9889 67° East 221 254 3,100 1,900 Climbing Jacksonville Center
Tue 02:55:34 PM 32.9378 -79.9322 37° Northeast 264 304 5,200 2,200 Climbing Jacksonville Center
Tue 02:56:00 PM 33.2628 -79.9241 North  Level FlightAware Approximate
Tue 02:56:34 PM 32.9942 -79.9331 359° North 281 323 7,500  Level Jacksonville Center
Tue 02:57:00 PM 33.3556 -79.8888 23° Northeast  Level FlightAware Approximate
Tue 02:57:34 PM 33.0636 -79.9653 339° North 287 330 9,700  Level Jacksonville Center
Tue 02:58:00 PM 33.4515 -79.8662 13° North  Level FlightAware Approximate
Tue 02:58:34 PM 33.1381 -80.0225 327° Northwest 317 365 10,000  Level Jacksonville Center
Tue 02:59:34 PM 33.2189 -80.0869 326° Northwest 338 389 11,800 1,800 Climbing Jacksonville Center
Tue 03:00:34 PM 33.3014 -80.1414 331° Northwest 344 396 13,600 1,650 Climbing Jacksonville Center
Tue 03:01:34 PM 33.3925 -80.1114 15° North 317 365 15,100 1,400 Climbing Jacksonville Center
Tue 03:02:34 PM 33.4875 -80.0608 24° Northeast 327 376 16,400 1,200 Climbing Jacksonville Center
Tue 03:03:34 PM 33.5822 -80.0081 25° Northeast 349 402 17,500 1,100 Climbing Jacksonville Center
Tue 03:04:34 PM 33.6814 -79.9575 23° Northeast 366 421 18,600 1,100 Climbing Jacksonville Center
Tue 03:05:34 PM 33.7561 -79.8625 47° Northeast 383 441 19,700 1,050 Climbing Jacksonville Center
Tue 03:06:34 PM 33.8203 -79.7553 54° Northeast 378 435 20,700 650 Climbing Jacksonville Center
Tue 03:07:34 PM 33.8886 -79.6478 53° Northeast 395 455 21,000 350 Climbing Jacksonville Center
Tue 03:08:34 PM 33.9803 -79.5642 37° Northeast 403 464 21,400 650 Climbing Jacksonville Center
Tue 03:09:34 PM 34.0917 -79.5150 20° North 403 464 22,300 800 Climbing Jacksonville Center
Tue 03:10:34 PM 34.2028 -79.4603 22° Northeast 409 471 23,000 750 Climbing Jacksonville Center
Tue 03:12:14 PM 34.3917 -79.3719 21° North 408 470 24,300 745 Climbing Washington Center
Tue 03:13:15 PM 34.4978 -79.3189 22° Northeast 408 470 25,000 655 Climbing Washington Center
Tue 03:14:13 PM 34.6097 -79.2686 20° North 414 476 25,600 559 Climbing Washington Center
Tue 03:15:13 PM 34.7242 -79.2156 21° North 419 482 26,100 492 Climbing Washington Center
Tue 03:16:15 PM 34.8383 -79.1600 22° Northeast 424 488 26,600 504 Climbing Washington Center
Tue 03:17:12 PM 34.9528 -79.1067 21° North 424 488 27,100 508 Climbing Washington Center
Tue 03:18:13 PM 35.0669 -79.0508 22° Northeast 434 499 27,600 496 Climbing Washington Center
Tue 03:19:13 PM 35.1811 -78.9972 21° North 434 499 28,100 496 Climbing Washington Center
Tue 03:20:14 PM 35.2953 -78.9436 21° North 434 499 28,600 446 Climbing Washington Center
Tue 03:21:14 PM 35.4117 -78.8872 22° Northeast 439 505 29,000 203 Climbing Washington Center
Tue 03:22:12 PM 35.5281 -78.8333 21° North 439 505 29,000 -102 Level Washington Center
Tue 03:23:12 PM 35.6486 -78.7744 22° Northeast 444 511 28,800 -650 Descending Washington Center
Tue 03:24:12 PM 35.7711 -78.7128 22° Northeast 458 527 27,700 -893 Descending Washington Center
Tue 03:25:13 PM 35.9000 -78.6511 21° North 477 549 27,000 -344 Descending Washington Center
Tue 03:26:14 PM 36.0247 -78.5867 23° Northeast 482 555 27,000  Level Washington Center
Tue 03:27:12 PM 36.1514 -78.5244 22° Northeast 482 555 27,000  Level Washington Center
Tue 03:28:12 PM 36.2739 -78.4647 21° North 477 549 27,000  Level Washington Center
Tue 03:29:14 PM 36.3986 -78.4022 22° Northeast 477 549 27,000  Level Washington Center
Tue 03:30:15 PM 36.5189 -78.3419 22° Northeast 477 549 27,000  Level Washington Center
Tue 03:31:12 PM 36.6392 -78.2839 21° North 477 549 27,000  Level Washington Center
Tue 03:32:13 PM 36.7553 -78.2206 24° Northeast 464 534 27,000  Level Washington Center
Tue 03:33:14 PM 36.8756 -78.1625 21° North 459 528 27,000 -246 Level Washington Center
Tue 03:34:15 PM 36.9956 -78.0989 23° Northeast 459 528 26,500 -807 Descending Washington Center
Tue 03:35:13 PM 37.1136 -78.0400 22° Northeast 459 528 25,400 -908 Descending Washington Center
Tue 03:36:14 PM 37.2169 -77.9886 22° Northeast 424 488 24,700 -793 Descending Washington Center
Tue 03:37:14 PM 37.3161 -77.9369 23° Northeast 395 455 23,800 -893 Descending Washington Center
Tue 03:38:15 PM 37.4172 -77.8850 22° Northeast 390 449 22,900 -915 Descending Washington Center
Tue 03:39:12 PM 37.5161 -77.8331 23° Northeast 385 443 22,000 -915 Descending Washington Center
Tue 03:40:13 PM 37.6131 -77.7783 24° Northeast 378 435 21,100 -1,033 Descending Washington Center
Tue 03:41:14 PM 37.7081 -77.7233 25° Northeast 373 429 19,900 -1,636 Descending Washington Center
Tue 03:42:14 PM 37.8028 -77.6681 25° Northeast 368 423 17,800 -1,736 Descending Washington Center
Tue 03:43:15 PM 37.8744 -77.6253 25° Northeast 363 418 16,400 -1,881 Descending Washington Center
Tue 03:44:12 PM 37.9797 -77.5622 25° Northeast 351 404 14,100 -2,085 Descending Washington Center
Tue 03:45:13 PM 38.0533 -77.5247 22° Northeast 335 386 12,300 -1,820 Descending Washington Center
Tue 03:46:14 PM 38.1356 -77.4767 25° Northeast 320 368 10,400 -1,240 Descending Washington Center
Tue 03:47:14 PM 38.2069 -77.4467 18° North 298 343 9,800 -966 Descending Washington Center
Tue 03:48:12 PM 38.2839 -77.4486 359° North 268 308 8,500 -1,160 Descending Washington Center
Tue 03:49:13 PM 38.3592 -77.4506 359° North 268 308 7,500 -744 Descending Washington Center
Tue 03:50:13 PM 38.4342 -77.4550 357° North 268 308 7,000 -248 Descending Washington Center
Tue 03:51:14 PM 38.5092 -77.4569 359° North 273 314 7,000  Level Washington Center
Tue 03:52:14 PM 38.5819 -77.4614 357° North 266 306 7,000 -559 Level Washington Center
Tue 03:53:12 PM 38.6383 -77.4656 357° North 232 267 5,900 -1,008 Descending Washington Center
Tue 03:54:13 PM 38.6925 -77.4669 359° North 213 245 5,000 -609 Descending Washington Center
Tue 03:55:20 PM 38.7500 -77.4667 360° North 195 224 4,600 -945 Descending Potomac TRACON
Tue 03:56:20 PM 38.8167 -77.4667 360° North 183 211 3,000 -1,600 Descending Potomac TRACON

Login

Don't have an account? Register now (free) for customized features, flight alerts, and more!